Time;durP1;ratioP1;P1;durP2;ratioP2;P2;SDS_P1;SDS_P2;PMS_P1;PMS_P2;Temp;Humidity;BMP_temperature;BMP_pressure;BME280_temperature;BME280_humidity;BME280_pressure;Samples;Min_cycle;Max_cycle;Signal;HPM_P1;HPM_P2
2023/04/05 00:01:36;;;;;;;2.03;1.20;;;20.70;69.20;;;;;;5075867;28;20766;-89
2023/04/05 00:04:04;;;;;;;1.60;1.50;;;20.70;69.10;;;;;;5075641;28;20451;-91
2023/04/05 00:06:31;;;;;;;1.67;1.50;;;20.70;69.20;;;;;;5075790;28;20432;-85
2023/04/05 00:09:00;;;;;;;1.60;1.50;;;20.70;69.40;;;;;;5075800;28;20504;-85
2023/04/05 00:11:29;;;;;;;1.40;1.23;;;20.70;69.20;;;;;;5075765;28;20440;-91
2023/04/05 00:13:56;;;;;;;1.60;1.40;;;20.70;69.20;;;;;;5075397;28;20468;-88
2023/04/05 00:16:23;;;;;;;1.50;1.40;;;20.70;69.20;;;;;;5075815;28;20466;-91
2023/04/05 00:18:50;;;;;;;1.70;1.53;;;20.70;69.00;;;;;;5075435;28;20523;-85
2023/04/05 00:21:20;;;;;;;1.60;1.50;;;20.70;68.90;;;;;;5075558;28;20476;-92
2023/04/05 00:23:47;;;;;;;2.90;1.80;;;20.70;68.80;;;;;;5075488;28;20865;-91
2023/04/05 00:26:15;;;;;;;1.40;1.20;;;20.70;69.00;;;;;;5075365;28;20465;-90
2023/04/05 00:28:42;;;;;;;1.80;1.50;;;20.80;69.20;;;;;;5075429;28;20433;-91
2023/04/05 00:31:09;;;;;;;1.80;1.70;;;20.70;69.20;;;;;;5075336;28;20433;-90
2023/04/05 00:33:36;;;;;;;1.73;1.33;;;20.70;69.10;;;;;;5075213;28;20530;-91
2023/04/05 00:36:10;;;;;;;1.70;1.60;;;20.70;69.20;;;;;;5075105;28;20443;-84
2023/04/05 00:38:37;;;;;;;1.50;1.17;;;20.70;69.00;;;;;;5075264;28;20474;-89
2023/04/05 00:41:04;;;;;;;1.50;1.30;;;20.60;68.90;;;;;;5075024;28;20432;-89
2023/04/05 00:43:32;;;;;;;1.50;1.40;;;20.60;68.90;;;;;;5075115;28;20440;-84
2023/04/05 00:45:59;;;;;;;1.80;1.70;;;20.60;68.90;;;;;;5075106;28;20436;-83
2023/04/05 00:48:26;;;;;;;1.30;1.20;;;20.60;69.00;;;;;;5074980;28;20510;-83
2023/04/05 00:50:53;;;;;;;1.70;1.43;;;20.60;69.10;;;;;;5074923;28;20939;-83
2023/04/05 00:53:20;;;;;;;2.07;1.87;;;20.60;69.10;;;;;;5074843;28;20442;-84
2023/04/05 00:55:48;;;;;;;1.90;1.80;;;20.60;69.00;;;;;;5074690;28;20457;-83
2023/04/05 00:58:18;;;;;;;1.33;1.23;;;20.60;68.90;;;;;;5074874;28;20454;-90
2023/04/05 01:00:52;;;;;;;1.40;1.30;;;20.60;68.90;;;;;;5074801;28;20529;-91
2023/04/05 01:03:25;;;;;;;1.57;1.47;;;20.60;69.10;;;;;;5074738;28;20436;-83
2023/04/05 01:05:55;;;;;;;2.77;2.10;;;20.60;69.20;;;;;;5074781;28;20490;-83
2023/04/05 01:08:32;;;;;;;2.37;1.53;;;20.60;69.30;;;;;;5074619;28;20447;-83
2023/04/05 01:11:03;;;;;;;2.50;1.30;;;20.60;69.30;;;;;;5074472;28;20940;-83
2023/04/05 01:13:30;;;;;;;1.30;1.17;;;20.70;69.20;;;;;;5074258;28;20474;-83
2023/04/05 01:15:59;;;;;;;1.53;1.20;;;20.60;69.10;;;;;;5074334;28;20920;-83
2023/04/05 01:18:26;;;;;;;2.30;1.77;;;20.60;68.90;;;;;;5074443;28;20535;-83
2023/04/05 01:21:04;;;;;;;1.70;1.60;;;20.50;68.70;;;;;;5074135;28;20480;-91
2023/04/05 01:23:45;;;;;;;1.47;1.37;;;20.50;68.70;;;;;;5074331;28;20446;-83
2023/04/05 01:26:46;;;;;;;1.57;1.47;;;20.50;68.70;;;;;;5074144;28;20457;-91
2023/04/05 01:29:56;;;;;;;1.70;1.60;;;20.50;68.80;;;;;;5074162;28;20444;-83
2023/04/05 01:32:53;;;;;;;1.53;1.40;;;20.50;68.80;;;;;;5074067;28;20436;-82
2023/04/05 01:35:29;;;;;;;2.23;1.60;;;20.50;68.80;;;;;;5067129;28;20450;-83
2023/04/05 01:38:00;;;;;;;1.50;1.40;;;20.50;68.80;;;;;;5074034;28;20462;-82
2023/04/05 01:40:28;;;;;;;1.60;1.50;;;20.50;68.50;;;;;;5073936;28;20484;-91
2023/04/05 01:42:54;;;;;;;1.80;1.57;;;20.50;68.80;;;;;;5073869;28;20807;-91
2023/04/05 01:45:22;;;;;;;1.50;1.37;;;20.50;68.60;;;;;;5073728;28;20531;-83
2023/04/05 01:47:49;;;;;;;1.50;1.40;;;20.50;68.80;;;;;;5073743;28;20519;-83
2023/04/05 01:50:16;;;;;;;1.93;1.33;;;20.50;68.90;;;;;;5073730;28;20449;-85
2023/04/05 01:52:43;;;;;;;1.50;1.30;;;20.50;68.60;;;;;;5073712;28;20932;-83
2023/04/05 01:55:10;;;;;;;2.63;1.87;;;20.50;68.70;;;;;;5073338;28;21018;-83
2023/04/05 01:57:37;;;;;;;1.90;1.70;;;20.50;68.80;;;;;;5073632;28;20793;-83
2023/04/05 02:00:05;;;;;;;1.63;1.53;;;20.50;68.90;;;;;;5073486;28;20491;-91
2023/04/05 02:02:33;;;;;;;2.10;1.90;;;20.50;69.00;;;;;;5073530;28;20511;-86
2023/04/05 02:05:00;;;;;;;1.40;1.23;;;20.50;68.90;;;;;;5073171;28;20443;-82
2023/04/05 02:07:26;;;;;;;1.50;1.30;;;20.50;68.80;;;;;;5073587;28;20441;-83
2023/04/05 02:09:53;;;;;;;1.80;1.40;;;20.50;69.00;;;;;;5073392;28;20440;-91
2023/04/05 02:12:21;;;;;;;1.40;1.30;;;20.50;68.80;;;;;;5073501;28;20473;-83
2023/04/05 02:14:48;;;;;;;1.70;1.60;;;20.50;68.80;;;;;;5073289;28;20544;-82
2023/04/05 02:17:16;;;;;;;1.73;1.63;;;20.50;68.80;;;;;;5073406;28;20449;-82
2023/04/05 02:19:45;;;;;;;1.50;1.40;;;20.50;68.90;;;;;;5073272;28;20476;-83
2023/04/05 02:22:11;;;;;;;1.67;1.57;;;20.50;68.80;;;;;;5073363;28;20800;-90
2023/04/05 02:24:38;;;;;;;1.60;1.50;;;20.50;68.90;;;;;;5073168;28;20475;-83
2023/04/05 02:27:06;;;;;;;1.80;1.40;;;20.50;68.70;;;;;;5073299;28;20446;-91
2023/04/05 02:29:33;;;;;;;1.53;1.43;;;20.40;68.90;;;;;;5073285;28;20444;-82
2023/04/05 02:32:00;;;;;;;2.30;1.77;;;20.40;69.00;;;;;;5073155;28;20440;-91
2023/04/05 02:34:27;;;;;;;1.90;1.23;;;20.40;68.80;;;;;;5072932;28;20444;-82
2023/04/05 02:36:55;;;;;;;1.93;1.77;;;20.40;68.80;;;;;;5073210;28;20448;-83
2023/04/05 02:39:22;;;;;;;1.50;1.37;;;20.40;69.00;;;;;;5073003;28;20539;-88
2023/04/05 02:41:49;;;;;;;1.37;1.27;;;20.40;68.80;;;;;;5073199;28;20452;-92
2023/04/05 02:44:15;;;;;;;1.37;1.27;;;20.40;68.80;;;;;;5072953;28;20441;-84
2023/04/05 02:46:42;;;;;;;1.70;1.60;;;20.40;68.80;;;;;;5073161;28;20448;-85
2023/04/05 02:49:09;;;;;;;2.13;1.57;;;20.40;68.70;;;;;;5073090;28;20958;-84
2023/04/05 02:51:36;;;;;;;1.50;1.40;;;20.40;68.70;;;;;;5073107;28;20462;-84
2023/04/05 02:54:04;;;;;;;1.47;1.37;;;20.40;68.90;;;;;;5073288;28;20791;-84
2023/04/05 02:56:31;;;;;;;1.97;1.80;;;20.40;68.90;;;;;;5072754;28;20460;-85
2023/04/05 02:58:58;;;;;;;1.70;1.60;;;20.40;68.70;;;;;;5072979;28;20444;-92
2023/04/05 03:01:25;;;;;;;1.40;1.30;;;20.40;68.80;;;;;;5072860;28;20483;-87
2023/04/05 03:03:52;;;;;;;1.60;1.50;;;20.40;68.90;;;;;;5072994;28;20437;-92
2023/04/05 03:06:19;;;;;;;1.43;1.33;;;20.30;68.80;;;;;;5072976;28;20437;-92
2023/04/05 03:08:47;;;;;;;1.30;1.20;;;20.30;69.70;;;;;;5072750;28;20448;-91
2023/04/05 03:11:24;;;;;;;1.87;1.77;;;20.30;68.60;;;;;;5072899;28;20448;-92
2023/04/05 03:13:51;;;;;;;1.83;1.70;;;20.40;68.70;;;;;;5072388;28;20466;-90
2023/04/05 03:16:19;;;;;;;1.70;1.60;;;20.40;68.60;;;;;;5072722;28;20440;-91
2023/04/05 03:18:45;;;;;;;2.27;1.87;;;20.40;68.70;;;;;;5075425;28;20443;-91
2023/04/05 03:21:12;;;;;;;1.60;1.50;;;20.30;68.50;;;;;;5076573;28;20488;-92
2023/04/05 03:23:39;;;;;;;1.30;1.20;;;20.30;68.60;;;;;;5076729;28;20450;-85
2023/04/05 03:26:06;;;;;;;1.47;1.17;;;20.30;68.50;;;;;;5076423;28;20456;-89
2023/04/05 03:28:34;;;;;;;1.70;1.47;;;20.40;68.50;;;;;;5076531;28;20436;-93
2023/04/05 03:31:01;;;;;;;1.77;1.67;;;20.30;68.50;;;;;;5076412;28;20544;-87
2023/04/05 03:33:28;;;;;;;4.03;1.57;;;20.30;68.50;;;;;;5076133;28;20451;-85
2023/04/05 03:35:55;;;;;;;1.50;1.40;;;20.30;68.50;;;;;;5076287;28;20440;-84
2023/04/05 03:38:21;;;;;;;1.83;1.70;;;20.30;68.50;;;;;;5076354;28;20433;-84
2023/04/05 03:40:48;;;;;;;1.50;1.40;;;20.30;68.40;;;;;;5076109;28;20488;-87
2023/04/05 03:43:15;;;;;;;1.30;1.10;;;20.30;68.50;;;;;;5076242;28;20458;-86
2023/04/05 03:45:43;;;;;;;1.47;1.37;;;20.30;68.50;;;;;;5076231;28;20441;-85
2023/04/05 03:48:10;;;;;;;1.43;1.33;;;20.30;68.50;;;;;;5076066;28;20813;-84
2023/04/05 03:50:37;;;;;;;1.70;1.60;;;20.30;68.60;;;;;;5076190;28;20790;-85
2023/04/05 03:53:04;;;;;;;2.27;1.90;;;20.30;68.60;;;;;;5075842;28;20440;-84
2023/04/05 03:55:31;;;;;;;2.00;1.73;;;20.30;68.60;;;;;;5075800;28;20473;-91
2023/04/05 03:57:58;;;;;;;2.17;1.67;;;20.30;68.40;;;;;;5075878;28;20444;-93
2023/04/05 04:00:25;;;;;;;1.60;1.50;;;20.30;68.50;;;;;;5075894;28;20842;-84
2023/04/05 04:02:53;;;;;;;2.37;1.60;;;20.20;68.30;;;;;;5076033;28;20534;-86
2023/04/05 04:05:20;;;;;;;1.50;1.40;;;20.30;68.40;;;;;;5075858;28;20801;-89
2023/04/05 04:07:47;;;;;;;1.30;1.20;;;20.30;68.50;;;;;;5075829;28;20432;-84
2023/04/05 04:10:17;;;;;;;1.40;1.30;;;20.30;68.20;;;;;;5075822;28;20806;-84
2023/04/05 04:12:44;;;;;;;1.90;1.80;;;20.20;68.20;;;;;;5075415;28;20476;-84
2023/04/05 04:15:11;;;;;;;1.70;1.30;;;20.30;68.50;;;;;;5075667;28;20432;-85
2023/04/05 04:17:38;;;;;;;2.40;1.50;;;20.30;68.30;;;;;;5075597;28;20447;-85
2023/04/05 04:20:09;;;;;;;1.43;1.33;;;20.30;68.40;;;;;;5075430;28;20428;-89
2023/04/05 04:22:37;;;;;;;1.80;1.50;;;20.20;68.40;;;;;;5075604;28;20838;-84
2023/04/05 04:25:08;;;;;;;1.50;1.40;;;20.20;68.30;;;;;;5075231;28;20471;-94
2023/04/05 04:27:37;;;;;;;1.70;1.30;;;20.20;68.10;;;;;;5075528;28;20472;-84
2023/04/05 04:30:06;;;;;;;2.07;1.47;;;20.20;68.30;;;;;;5074956;28;20446;-85
2023/04/05 04:32:52;;;;;;;1.63;1.30;;;20.20;68.20;;;;;;5075240;28;20519;-84
2023/04/05 04:35:23;;;;;;;2.43;1.70;;;20.20;68.40;;;;;;5075153;28;20570;-84
2023/04/05 04:37:53;;;;;;;1.97;1.53;;;20.20;68.40;;;;;;5075157;28;20449;-84
2023/04/05 04:40:21;;;;;;;1.83;1.70;;;20.20;68.70;;;;;;5074999;28;20476;-85
2023/04/05 04:42:49;;;;;;;1.37;1.27;;;20.20;68.60;;;;;;5075203;28;20448;-84
2023/04/05 04:45:17;;;;;;;2.37;1.50;;;20.20;68.40;;;;;;5074884;28;20448;-84
2023/04/05 04:47:44;;;;;;;1.60;1.50;;;20.20;68.30;;;;;;5074932;28;20437;-84
2023/04/05 04:50:11;;;;;;;1.27;1.13;;;20.10;68.40;;;;;;5075103;28;20451;-91
2023/04/05 04:52:40;;;;;;;1.80;1.50;;;20.10;68.10;;;;;;5074845;28;20490;-84
2023/04/05 04:55:09;;;;;;;2.80;1.53;;;20.10;68.30;;;;;;5074655;28;20460;-85
2023/04/05 04:57:36;;;;;;;1.93;1.73;;;20.10;68.50;;;;;;5074651;28;20439;-84
2023/04/05 05:00:06;;;;;;;2.50;1.77;;;20.10;68.40;;;;;;5074627;28;20444;-92
2023/04/05 05:02:33;;;;;;;1.40;1.30;;;20.10;68.20;;;;;;5074781;28;20437;-85
2023/04/05 05:05:00;;;;;;;1.50;1.40;;;20.10;68.40;;;;;;5074613;28;20437;-84
2023/04/05 05:07:27;;;;;;;1.40;1.30;;;20.30;68.50;;;;;;5074752;28;20547;-86
2023/04/05 05:09:55;;;;;;;1.63;1.53;;;20.10;68.40;;;;;;5074631;28;20443;-84
2023/04/05 05:12:22;;;;;;;1.63;1.30;;;20.10;68.50;;;;;;5074131;28;20480;-84
2023/04/05 05:14:49;;;;;;;1.70;1.60;;;20.10;68.40;;;;;;5074379;28;20440;-85
2023/04/05 05:17:16;;;;;;;1.67;1.40;;;20.10;68.40;;;;;;5074429;28;20463;-84
2023/04/05 05:19:42;;;;;;;1.70;1.60;;;20.10;68.00;;;;;;5074394;28;20928;-84
2023/04/05 05:22:09;;;;;;;1.40;1.20;;;20.10;68.30;;;;;;5074247;28;21034;-85
2023/04/05 05:24:36;;;;;;;1.83;1.40;;;20.00;68.20;;;;;;5074231;28;20914;-84
2023/04/05 05:27:05;;;;;;;1.60;1.50;;;20.00;68.00;;;;;;5074197;28;20440;-84
2023/04/05 05:29:32;;;;;;;1.53;1.27;;;20.00;68.10;;;;;;5074103;28;20491;-91
2023/04/05 05:31:59;;;;;;;1.30;1.20;;;20.10;68.10;;;;;;5074063;28;20474;-85
2023/04/05 05:34:26;;;;;;;1.37;1.27;;;20.20;68.40;;;;;;5074059;28;20951;-84
2023/04/05 05:36:53;;;;;;;1.60;1.40;;;20.10;68.30;;;;;;5074124;28;20957;-85
2023/04/05 05:39:20;;;;;;;1.63;1.43;;;20.00;68.20;;;;;;5074072;28;20443;-84
2023/04/05 05:41:47;;;;;;;1.60;1.43;;;20.00;68.10;;;;;;5073281;28;20479;-92
2023/04/05 05:44:15;;;;;;;1.67;1.57;;;20.20;68.40;;;;;;5073720;28;20437;-84
2023/04/05 05:46:42;;;;;;;1.30;1.20;;;20.00;68.30;;;;;;5073461;28;20448;-92
2023/04/05 05:49:09;;;;;;;1.70;1.60;;;20.00;68.40;;;;;;5073642;28;20446;-84
2023/04/05 05:51:36;;;;;;;2.63;1.67;;;20.00;68.50;;;;;;5073805;28;20444;-96
2023/04/05 05:54:03;;;;;;;2.40;2.03;;;20.10;68.50;;;;;;5072747;28;20630;-90
2023/04/05 05:56:30;;;;;;;4.23;1.70;;;20.00;66.70;;;;;;5073486;28;20460;-88
2023/04/05 05:58:58;;;;;;;5.20;2.10;;;20.00;68.10;;;;;;5073326;28;20449;-83
2023/04/05 06:01:28;;;;;;;1.70;1.60;;;20.00;68.60;;;;;;5073589;28;20828;-93
2023/04/05 06:03:55;;;;;;;1.80;1.50;;;20.00;68.40;;;;;;5073725;28;20444;-85
2023/04/05 06:06:23;;;;;;;1.87;1.57;;;20.20;68.70;;;;;;5073484;28;20449;-86
2023/04/05 06:08:50;;;;;;;3.43;1.97;;;20.00;68.50;;;;;;5073521;28;20440;-84
2023/04/05 06:11:18;;;;;;;3.33;1.77;;;20.00;68.40;;;;;;5073418;28;20440;-88
2023/04/05 06:13:44;;;;;;;2.10;1.60;;;20.00;68.50;;;;;;5073229;28;20478;-85
2023/04/05 06:16:11;;;;;;;2.20;1.67;;;20.00;68.60;;;;;;5073409;28;20444;-92
2023/04/05 06:18:39;;;;;;;2.00;1.90;;;20.00;68.70;;;;;;5073675;28;20797;-93
2023/04/05 06:21:06;;;;;;;2.07;1.80;;;20.00;68.40;;;;;;5073196;28;20484;-84
2023/04/05 06:23:33;;;;;;;2.17;1.60;;;20.10;68.70;;;;;;5073690;28;20452;-83
2023/04/05 06:26:00;;;;;;;2.40;1.83;;;20.10;68.50;;;;;;5073243;28;20461;-83
2023/04/05 06:28:26;;;;;;;2.60;1.80;;;20.00;68.50;;;;;;5073355;28;20452;-93
2023/04/05 06:30:54;;;;;;;2.83;1.70;;;20.30;68.60;;;;;;5073317;28;20447;-84
2023/04/05 06:33:20;;;;;;;1.93;1.83;;;20.10;68.50;;;;;;5073350;28;20451;-94
2023/04/05 06:35:49;;;;;;;2.67;1.50;;;20.10;68.60;;;;;;5073744;28;20993;-92
2023/04/05 06:38:16;;;;;;;1.97;1.70;;;20.10;68.70;;;;;;5073424;28;20436;-84
2023/04/05 06:40:42;;;;;;;2.50;2.30;;;20.10;68.70;;;;;;5073268;28;20434;-94
2023/04/05 06:43:10;;;;;;;2.43;2.07;;;20.10;68.80;;;;;;5073236;28;20450;-83
2023/04/05 06:45:38;;;;;;;2.20;1.90;;;20.10;69.00;;;;;;5073413;28;20490;-83
2023/04/05 06:48:05;;;;;;;2.10;1.90;;;20.10;68.70;;;;;;5073390;28;20939;-83
2023/04/05 06:50:32;;;;;;;2.23;1.83;;;20.10;68.50;;;;;;5073361;28;20445;-86
2023/04/05 06:53:00;;;;;;;4.33;1.80;;;20.10;68.70;;;;;;5076551;28;20443;-93
2023/04/05 06:55:28;;;;;;;1.90;1.80;;;20.10;68.20;;;;;;5077436;28;20490;-84
2023/04/05 06:57:55;;;;;;;2.30;2.10;;;20.10;68.20;;;;;;5077247;28;20839;-84
2023/04/05 07:00:22;;;;;;;2.67;2.10;;;20.20;68.40;;;;;;5077179;28;20932;-84
2023/04/05 07:02:49;;;;;;;2.43;2.23;;;20.20;68.00;;;;;;5076989;28;20544;-83
2023/04/05 07:05:16;;;;;;;2.43;1.60;;;20.20;67.90;;;;;;5077034;28;20440;-91
2023/04/05 07:07:44;;;;;;;1.70;1.60;;;20.20;68.20;;;;;;5076877;28;20436;-84
2023/04/05 07:10:12;;;;;;;2.20;2.00;;;20.20;68.20;;;;;;5076885;28;20444;-84
2023/04/05 07:12:39;;;;;;;3.53;1.67;;;20.20;68.30;;;;;;5076699;28;20507;-90
2023/04/05 07:15:07;;;;;;;2.00;1.73;;;20.20;68.40;;;;;;5076685;28;20927;-86
2023/04/05 07:17:34;;;;;;;4.53;1.67;;;20.30;68.70;;;;;;5076921;28;20444;-84
2023/04/05 07:20:01;;;;;;;3.33;1.50;;;20.20;68.90;;;;;;5077068;28;20455;-84
2023/04/05 07:22:27;;;;;;;2.77;1.83;;;20.20;68.90;;;;;;5077041;28;20487;-84
2023/04/05 07:24:54;;;;;;;1.73;1.60;;;20.30;69.10;;;;;;5077295;28;20475;-84
2023/04/05 07:27:23;;;;;;;1.57;1.40;;;20.30;69.00;;;;;;5076591;28;20777;-93
2023/04/05 07:29:49;;;;;;;1.70;1.60;;;20.30;69.50;;;;;;5076610;28;20442;-87
2023/04/05 07:32:16;;;;;;;2.13;1.50;;;20.50;69.90;;;;;;5077607;28;20436;-88
2023/04/05 07:34:43;;;;;;;3.87;1.53;;;20.40;69.80;;;;;;5076789;28;20443;-90
2023/04/05 07:37:10;;;;;;;2.90;1.90;;;20.30;69.90;;;;;;5076851;28;20451;-91
2023/04/05 07:39:37;;;;;;;3.63;1.80;;;20.30;70.10;;;;;;5078453;28;20493;-90
2023/04/05 07:42:04;;;;;;;2.00;1.80;;;20.30;70.10;;;;;;5080172;28;20487;-95
2023/04/05 07:44:42;;;;;;;5.07;1.83;;;20.30;70.10;;;;;;5084330;28;20436;-93
2023/04/05 07:47:09;;;;;;;1.57;1.47;;;20.30;70.10;;;;;;5081514;28;20524;-92
2023/04/05 07:49:37;;;;;;;1.43;1.30;;;20.30;70.30;;;;;;5077000;28;20444;-88
2023/04/05 07:52:04;;;;;;;5.13;1.50;;;20.30;70.20;;;;;;5076234;28;20441;-88
2023/04/05 07:54:32;;;;;;;2.60;1.53;;;20.40;70.30;;;;;;5084563;28;20472;-96
2023/04/05 07:57:06;;;;;;;2.63;1.73;;;20.40;70.50;;;;;;5088064;22;20445;-95
2023/04/05 07:59:35;;;;;;;5.10;1.60;;;20.40;70.40;;;;;;5022754;28;20450;-93
2023/04/05 08:02:02;;;;;;;3.10;1.40;;;20.40;70.70;;;;;;5016378;28;20537;-88
2023/04/05 08:04:28;;;;;;;2.00;1.60;;;20.40;71.00;;;;;;5015544;28;20440;-88
2023/04/05 08:06:55;;;;;;;3.13;1.90;;;20.50;71.00;;;;;;5016880;28;20447;-89
2023/04/05 08:09:22;;;;;;;1.53;1.43;;;20.50;70.90;;;;;;5016972;28;20935;-86
2023/04/05 08:11:48;;;;;;;3.70;1.70;;;20.50;71.00;;;;;;5016470;28;20457;-91
2023/04/05 08:14:16;;;;;;;2.17;1.50;;;20.50;70.90;;;;;;5016825;28;20447;-92
2023/04/05 08:16:44;;;;;;;1.83;1.33;;;20.50;71.10;;;;;;5017177;28;20481;-88
2023/04/05 08:19:11;;;;;;;1.50;1.40;;;20.60;71.40;;;;;;5015502;28;20451;-87
2023/04/05 08:21:38;;;;;;;3.83;1.67;;;20.60;71.10;;;;;;5015559;28;20852;-86
2023/04/05 08:24:05;;;;;;;1.90;1.50;;;20.60;71.20;;;;;;5013864;28;20810;-91
2023/04/05 08:26:32;;;;;;;2.53;1.63;;;20.60;71.40;;;;;;4998510;28;20451;-89
2023/04/05 08:28:58;;;;;;;4.60;1.60;;;20.70;71.40;;;;;;4996436;28;20448;-89
2023/04/05 08:31:25;;;;;;;10.67;1.33;;;20.70;71.10;;;;;;4998704;28;20439;-85
2023/04/05 08:33:53;;;;;;;4.40;1.30;;;20.70;71.20;;;;;;4995357;28;20454;-85
2023/04/05 08:36:20;;;;;;;4.60;1.50;;;20.80;71.20;;;;;;4996958;28;20440;-88
2023/04/05 08:38:47;;;;;;;5.70;2.70;;;20.80;71.20;;;;;;4994000;28;20479;-87
2023/04/05 08:41:18;;;;;;;8.00;2.20;;;20.80;66.70;;;;;;4994075;28;20448;-85
2023/04/05 08:43:54;;;;;;;3.53;1.80;;;20.80;69.20;;;;;;4994364;28;20474;-85
2023/04/05 08:46:23;;;;;;;1.70;1.60;;;20.80;69.60;;;;;;4998119;28;20439;-90
2023/04/05 08:48:50;;;;;;;2.07;1.60;;;20.90;68.30;;;;;;5003858;28;20460;-86
2023/04/05 08:51:21;;;;;;;5.23;1.93;;;20.90;65.50;;;;;;5002529;28;20450;-86
2023/04/05 08:53:50;;;;;;;2.23;2.03;;;20.80;64.70;;;;;;4999260;28;20479;-89
2023/04/05 08:56:25;;;;;;;4.87;1.83;;;20.80;65.30;;;;;;5018014;28;20451;-86
2023/04/05 08:58:57;;;;;;;4.63;2.00;;;20.80;67.50;;;;;;5016001;28;20482;-94
2023/04/05 09:01:29;;;;;;;2.33;1.80;;;20.90;68.20;;;;;;5018869;28;20537;-89
2023/04/05 09:03:57;;;;;;;3.57;1.60;;;20.90;69.30;;;;;;5040205;28;20572;-88
2023/04/05 09:06:27;;;;;;;2.87;1.87;;;21.00;68.80;;;;;;5036487;28;20667;-88
2023/04/05 09:15:02;;;;;;;2.37;1.83;;;21.10;69.20;;;;;;5012114;23;20487;-88
2023/04/05 09:17:31;;;;;;;1.60;1.50;;;21.20;69.40;;;;;;4997562;28;20801;-88
2023/04/05 09:19:59;;;;;;;2.03;1.80;;;21.30;69.40;;;;;;4995990;28;20475;-91
2023/04/05 09:22:27;;;;;;;2.03;1.70;;;21.30;68.70;;;;;;4994849;28;20850;-93
2023/04/05 09:24:55;;;;;;;2.17;1.40;;;21.30;67.20;;;;;;4976527;28;20483;-93
2023/04/05 09:27:22;;;;;;;2.50;1.53;;;21.20;67.20;;;;;;4975831;28;20442;-89
2023/04/05 09:29:50;;;;;;;2.07;1.53;;;21.30;67.30;;;;;;4975927;28;20438;-86
2023/04/05 09:32:18;;;;;;;2.23;1.57;;;21.20;67.70;;;;;;4975844;28;20445;-87
2023/04/05 09:34:44;;;;;;;4.43;1.63;;;21.20;68.20;;;;;;4975807;28;20959;-87
2023/04/05 09:37:16;;;;;;;1.70;1.37;;;21.40;69.70;;;;;;4975939;28;20447;-87
2023/04/05 09:39:45;;;;;;;2.27;1.20;;;21.40;69.00;;;;;;4975909;28;20441;-86
2023/04/05 09:42:14;;;;;;;1.50;1.27;;;21.40;69.00;;;;;;4975651;28;20473;-84
2023/04/05 09:44:51;;;;;;;2.60;1.30;;;21.50;69.30;;;;;;4975850;28;20449;-85
2023/04/05 09:47:19;;;;;;;6.03;2.30;;;21.60;68.70;;;;;;4974533;28;20445;-84
2023/04/05 09:49:46;;;;;;;4.17;1.90;;;21.50;62.20;;;;;;4975479;28;20440;-85
2023/04/05 09:52:21;;;;;;;4.40;1.47;;;21.50;67.00;;;;;;4974831;28;20451;-85
2023/04/05 09:54:51;;;;;;;2.13;1.70;;;21.50;67.40;;;;;;4976784;28;20467;-85
2023/04/05 09:57:18;;;;;;;1.70;1.53;;;21.60;67.60;;;;;;4975141;28;20555;-85
2023/04/05 09:59:46;;;;;;;1.40;1.20;;;21.60;67.70;;;;;;4975400;28;20865;-86
2023/04/05 10:02:13;;;;;;;1.97;1.40;;;21.70;67.90;;;;;;4986218;28;20486;-86
2023/04/05 10:04:41;;;;;;;2.13;1.43;;;21.80;67.70;;;;;;4984726;28;20442;-89
2023/04/05 10:07:10;;;;;;;1.57;1.37;;;21.80;68.00;;;;;;4976395;28;20445;-90
2023/04/05 10:09:37;;;;;;;5.33;1.70;;;21.90;67.90;;;;;;4994544;28;20448;-90
2023/04/05 10:12:07;;;;;;;1.93;1.47;;;21.90;68.10;;;;;;4994540;28;20861;-88
2023/04/05 10:14:34;;;;;;;1.30;1.20;;;22.00;68.20;;;;;;4994709;28;20894;-92
2023/04/05 10:17:12;;;;;;;1.40;1.17;;;22.10;68.40;;;;;;4995777;28;20976;-89
2023/04/05 10:19:50;;;;;;;1.43;1.33;;;22.20;68.50;;;;;;4994632;28;20446;-93
2023/04/05 10:22:27;;;;;;;1.60;1.40;;;22.20;68.60;;;;;;4996795;28;20476;-95
2023/04/05 10:25:09;;;;;;;1.50;1.40;;;22.20;68.70;;;;;;5000836;28;20558;-96
2023/04/05 10:27:46;;;;;;;2.50;1.50;;;22.30;68.80;;;;;;5002838;28;20459;-89
2023/04/05 10:30:18;;;;;;;3.83;1.33;;;22.50;69.10;;;;;;4994502;28;20428;-89
2023/04/05 10:33:00;;;;;;;4.47;1.57;;;22.40;68.90;;;;;;4994371;28;20900;-89
2023/04/05 10:35:34;;;;;;;1.50;1.40;;;22.40;68.90;;;;;;4994181;28;20428;-88
2023/04/05 10:38:17;;;;;;;3.13;1.30;;;22.60;69.00;;;;;;4994480;28;20527;-89
2023/04/05 10:40:47;;;;;;;1.83;1.10;;;22.50;70.00;;;;;;4994463;28;20798;-87
2023/04/05 10:43:21;;;;;;;1.30;1.20;;;22.70;69.50;;;;;;4993829;28;20488;-89
2023/04/05 10:45:51;;;;;;;3.00;1.30;;;22.50;69.30;;;;;;4994204;28;20437;-88
2023/04/05 10:48:28;;;;;;;1.93;1.20;;;22.60;69.40;;;;;;4993822;28;20440;-87
2023/04/05 10:50:56;;;;;;;1.67;1.33;;;22.60;69.60;;;;;;4993932;28;20439;-89
2023/04/05 10:53:25;;;;;;;2.00;1.27;;;22.60;69.60;;;;;;4993921;28;20532;-87
2023/04/05 10:55:53;;;;;;;3.07;1.30;;;22.70;69.90;;;;;;4994156;28;20460;-88
2023/04/05 10:58:22;;;;;;;2.33;1.33;;;22.70;70.80;;;;;;4993863;28;20440;-88
2023/04/05 11:00:50;;;;;;;1.80;1.47;;;22.80;69.90;;;;;;4993828;28;20437;-87
2023/04/05 11:03:41;;;;;;;1.70;1.20;;;22.80;69.80;;;;;;4993651;28;20495;-87
2023/04/05 11:06:31;;;;;;;4.40;1.27;;;22.90;70.00;;;;;;4994192;28;20481;-88
2023/04/05 11:09:00;;;;;;;1.80;1.20;;;22.90;70.20;;;;;;4991349;28;20453;-87
2023/04/05 11:11:27;;;;;;;1.47;1.10;;;22.90;70.20;;;;;;4993805;28;20936;-89
2023/04/05 11:13:56;;;;;;;2.87;1.10;;;22.90;70.20;;;;;;4994000;28;20445;-88
2023/04/05 11:16:38;;;;;;;1.77;1.57;;;22.90;70.40;;;;;;4993616;28;20998;-89
2023/04/05 11:19:05;;;;;;;1.40;1.10;;;22.90;70.50;;;;;;4994353;28;20437;-88
2023/04/05 11:21:31;;;;;;;2.07;1.40;;;22.90;70.60;;;;;;4994015;28;20444;-89
2023/04/05 11:24:07;;;;;;;3.10;1.40;;;23.00;70.70;;;;;;4993602;28;20529;-88
2023/04/05 11:26:53;;;;;;;1.70;1.20;;;23.00;71.60;;;;;;4993787;28;20503;-89
2023/04/05 11:29:48;;;;;;;2.83;1.47;;;23.00;70.80;;;;;;4994552;28;20495;-87
2023/04/05 11:32:15;;;;;;;1.60;1.23;;;23.00;67.00;;;;;;4993596;28;20536;-90
2023/04/05 11:34:42;;;;;;;1.53;1.43;;;23.00;69.50;;;;;;4993813;28;20436;-86
2023/04/05 11:37:09;;;;;;;1.40;1.00;;;22.90;69.50;;;;;;4993750;28;20437;-86
2023/04/05 11:39:38;;;;;;;1.43;1.33;;;22.90;69.80;;;;;;4996160;28;20439;-85
2023/04/05 11:42:06;;;;;;;1.30;1.10;;;22.90;70.90;;;;;;4997406;28;20452;-86
2023/04/05 11:44:43;;;;;;;2.33;1.67;;;23.00;70.40;;;;;;4997278;28;20443;-86
2023/04/05 11:47:10;;;;;;;1.30;1.20;;;23.00;70.50;;;;;;4997316;28;20440;-86
2023/04/05 11:49:38;;;;;;;3.20;1.00;;;23.00;70.60;;;;;;4997000;28;21075;-86
2023/04/05 11:52:13;;;;;;;2.03;1.20;;;23.00;70.70;;;;;;4997110;28;20444;-86
2023/04/05 11:54:44;;;;;;;3.00;1.30;;;23.10;70.80;;;;;;4997143;28;20464;-86
2023/04/05 11:57:13;;;;;;;1.40;1.10;;;23.10;70.70;;;;;;4996880;28;20440;-85
2023/04/05 11:59:42;;;;;;;1.80;1.20;;;23.10;70.60;;;;;;4996695;28;20444;-86
2023/04/05 12:02:08;;;;;;;3.67;1.30;;;23.10;70.60;;;;;;4996798;28;20442;-86
2023/04/05 12:04:35;;;;;;;5.00;1.30;;;23.10;70.40;;;;;;4996868;28;20959;-85
2023/04/05 12:07:10;;;;;;;1.60;1.40;;;23.10;70.50;;;;;;4996789;28;20442;-86
2023/04/05 12:09:36;;;;;;;3.10;1.30;;;23.20;70.50;;;;;;4996635;28;20504;-85
2023/04/05 12:12:03;;;;;;;1.20;1.00;;;23.10;70.20;;;;;;4996794;28;20448;-86
2023/04/05 12:14:32;;;;;;;3.13;1.53;;;23.10;71.10;;;;;;4996575;28;20485;-85
2023/04/05 12:17:00;;;;;;;1.70;1.20;;;23.10;70.20;;;;;;4996578;28;20499;-85
2023/04/05 12:19:30;;;;;;;1.67;1.20;;;23.00;69.60;;;;;;4996751;28;20448;-86
2023/04/05 12:21:57;;;;;;;1.60;1.10;;;23.10;69.40;;;;;;4996566;28;20440;-85
2023/04/05 12:24:24;;;;;;;1.23;1.00;;;23.20;69.30;;;;;;4996573;28;20520;-86
2023/04/05 12:26:51;;;;;;;1.30;1.03;;;23.10;69.30;;;;;;4996333;28;20800;-86
2023/04/05 12:29:18;;;;;;;1.30;1.20;;;23.10;69.30;;;;;;4996205;28;20956;-85
2023/04/05 12:31:46;;;;;;;1.93;1.73;;;23.10;69.10;;;;;;4999088;28;20934;-92
2023/04/05 15:46:44;;;;;;;2.57;1.30;;;22.40;61.00;;;;;;5017001;28;20771;-88
2023/04/05 15:49:12;;;;;;;2.57;1.50;;;22.40;61.40;;;;;;5016849;28;20506;-86
2023/04/05 15:51:39;;;;;;;9.77;2.07;;;22.40;61.80;;;;;;5016556;28;20451;-85
2023/04/05 15:54:06;;;;;;;4.00;1.80;;;22.40;61.40;;;;;;5016762;28;20509;-85
2023/04/05 15:56:35;;;;;;;3.73;1.80;;;22.40;61.50;;;;;;5016219;28;20530;-88
2023/04/05 15:59:02;;;;;;;2.50;1.50;;;22.40;61.60;;;;;;5016230;28;20447;-87
2023/04/05 16:01:29;;;;;;;4.40;1.50;;;22.40;61.70;;;;;;5015980;28;20530;-88
2023/04/05 16:03:55;;;;;;;3.60;1.60;;;22.40;62.00;;;;;;5016186;28;20498;-89
2023/04/05 16:06:27;;;;;;;2.50;1.80;;;22.40;62.10;;;;;;5015985;28;20489;-87
2023/04/05 16:08:53;;;;;;;5.13;1.57;;;22.40;62.10;;;;;;5015901;28;20509;-88
2023/04/05 16:11:20;;;;;;;3.20;1.27;;;22.40;62.20;;;;;;5016346;28;20518;-89
2023/04/05 16:13:47;;;;;;;2.37;1.20;;;22.40;62.40;;;;;;5016235;28;20939;-85
2023/04/05 16:16:14;;;;;;;3.33;1.60;;;22.40;62.50;;;;;;5016195;28;20443;-89